Time;durP1;ratioP1;P1;durP2;ratioP2;P2;SDS_P1;SDS_P2;PMS_P1;PMS_P2;Temp;Humidity;BMP_temperature;BMP_pressure;BME280_temperature;BME280_humidity;BME280_pressure;Samples;Min_cycle;Max_cycle;Signal;HPM_P1;HPM_P2
2022/06/22 00:01:06;;;;;;;14.00;7.00;;;19.10;60.00;;;;;;5070188;28;46373;-63
2022/06/22 00:03:34;;;;;;;15.57;7.40;;;19.00;62.10;;;;;;5071220;28;47118;-64
2022/06/22 00:06:01;;;;;;;13.83;7.73;;;19.00;61.20;;;;;;5070484;28;46542;-63
2022/06/22 00:08:34;;;;;;;16.30;7.93;;;19.00;62.30;;;;;;5068759;28;46396;-64
2022/06/22 00:11:05;;;;;;;12.33;7.93;;;19.00;60.80;;;;;;5074328;28;46384;-63
2022/06/22 00:13:31;;;;;;;11.13;7.87;;;19.10;60.60;;;;;;5069358;28;47241;-63
2022/06/22 00:16:06;;;;;;;10.60;7.80;;;19.10;60.10;;;;;;5075270;28;46815;-63
2022/06/22 00:18:41;;;;;;;12.60;7.40;;;19.10;60.80;;;;;;5069415;28;46541;-64
2022/06/22 00:21:33;;;;;;;14.80;8.40;;;19.10;61.10;;;;;;5071984;28;46541;-64
2022/06/22 00:24:01;;;;;;;14.37;8.77;;;19.00;61.40;;;;;;5075506;28;46381;-64
2022/06/22 00:26:34;;;;;;;18.53;8.60;;;19.00;61.10;;;;;;5075824;28;46413;-63
2022/06/22 00:29:09;;;;;;;13.30;8.33;;;19.00;61.10;;;;;;5072066;28;46174;-63
2022/06/22 00:31:34;;;;;;;16.33;8.23;;;18.90;61.80;;;;;;5076383;28;46515;-63
2022/06/22 00:34:15;;;;;;;14.83;9.20;;;18.90;62.30;;;;;;5069047;28;47208;-64
2022/06/22 00:37:16;;;;;;;17.97;9.13;;;18.80;62.80;;;;;;5074356;28;46402;-64
2022/06/22 00:39:48;;;;;;;20.27;9.03;;;18.80;63.10;;;;;;5064064;28;46473;-63
2022/06/22 00:42:28;;;;;;;10.60;8.10;;;18.70;63.80;;;;;;5069529;28;46425;-64
2022/06/22 00:45:27;;;;;;;16.53;9.07;;;18.60;64.30;;;;;;5069998;28;47004;-63
2022/06/22 00:47:55;;;;;;;17.90;9.33;;;18.60;65.00;;;;;;5073958;28;46444;-63
2022/06/22 00:50:40;;;;;;;23.47;10.20;;;18.60;64.70;;;;;;5067909;28;46861;-65
2022/06/22 00:53:11;;;;;;;14.03;8.60;;;18.60;64.90;;;;;;5072536;28;45937;-65
2022/06/22 00:55:40;;;;;;;15.33;9.30;;;18.60;64.80;;;;;;5072443;28;46455;-65
2022/06/22 00:58:17;;;;;;;14.87;9.30;;;18.50;65.00;;;;;;5068480;28;46417;-64
2022/06/22 01:03:39;;;;;;;15.17;9.50;;;18.50;65.50;;;;;;5064387;28;46757;-65
2022/06/22 01:06:15;;;;;;;14.40;9.27;;;18.50;65.80;;;;;;5065369;27;46472;-65
2022/06/22 01:09:13;;;;;;;14.53;9.77;;;18.50;65.90;;;;;;5062100;28;46276;-65
2022/06/22 01:12:23;;;;;;;16.83;8.50;;;18.50;66.00;;;;;;5062794;28;46402;-64
2022/06/22 01:15:12;;;;;;;17.87;9.70;;;18.50;66.10;;;;;;5065675;28;46682;-64
2022/06/22 01:18:00;;;;;;;19.57;9.33;;;18.40;65.90;;;;;;5068134;28;46324;-65
2022/06/22 01:20:45;;;;;;;27.80;9.80;;;18.40;65.90;;;;;;5064049;28;46312;-64
2022/06/22 01:23:44;;;;;;;15.07;8.93;;;18.40;66.10;;;;;;5065404;28;46505;-65
2022/06/22 01:26:37;;;;;;;23.27;10.00;;;18.40;66.50;;;;;;5064102;28;46448;-64
2022/06/22 01:29:11;;;;;;;21.53;8.43;;;18.40;66.10;;;;;;5065991;28;46420;-64
2022/06/22 01:32:05;;;;;;;13.80;9.10;;;18.40;65.80;;;;;;5058727;28;46513;-66
2022/06/22 01:34:38;;;;;;;20.50;9.03;;;18.40;65.80;;;;;;5064507;28;46544;-63
2022/06/22 01:37:11;;;;;;;30.00;9.60;;;18.50;65.60;;;;;;5059501;28;46575;-65
2022/06/22 01:39:37;;;;;;;19.13;8.93;;;18.50;65.60;;;;;;5063732;28;47330;-64
2022/06/22 01:42:12;;;;;;;19.47;8.90;;;18.40;65.60;;;;;;5068349;28;46260;-65
2022/06/22 01:44:46;;;;;;;16.13;7.80;;;18.40;65.80;;;;;;5063571;28;46433;-65
2022/06/22 01:47:36;;;;;;;15.07;9.50;;;18.40;65.90;;;;;;5061805;28;46478;-66
2022/06/22 01:50:02;;;;;;;13.47;7.83;;;18.40;66.20;;;;;;5062469;28;45782;-63
2022/06/22 01:52:50;;;;;;;14.63;7.80;;;18.30;65.80;;;;;;5060193;28;46444;-64
2022/06/22 01:55:31;;;;;;;20.23;7.77;;;18.40;66.20;;;;;;5062941;28;46400;-64
2022/06/22 01:58:02;;;;;;;18.00;8.10;;;18.40;65.90;;;;;;5059676;28;47134;-64
2022/06/22 02:00:27;;;;;;;15.20;8.60;;;18.40;65.90;;;;;;5060771;28;46263;-64
2022/06/22 02:02:58;;;;;;;18.83;8.60;;;18.40;66.10;;;;;;5059253;28;46323;-64
2022/06/22 02:05:40;;;;;;;16.83;8.03;;;18.40;66.10;;;;;;5057980;28;46469;-64
2022/06/22 02:08:22;;;;;;;17.37;7.70;;;18.30;66.10;;;;;;5063482;28;46646;-64
2022/06/22 02:11:13;;;;;;;14.33;8.30;;;18.40;66.30;;;;;;5058124;28;45802;-64
2022/06/22 02:13:41;;;;;;;14.80;8.00;;;18.30;66.00;;;;;;5046802;28;46575;-64
2022/06/22 02:16:22;;;;;;;16.97;7.97;;;18.40;65.90;;;;;;5047606;28;46533;-65
2022/06/22 02:18:50;;;;;;;14.13;7.90;;;18.30;66.10;;;;;;5040153;28;47440;-65
2022/06/22 02:21:20;;;;;;;11.77;7.60;;;18.30;66.10;;;;;;5042767;28;46515;-64
2022/06/22 02:24:02;;;;;;;11.50;6.97;;;18.30;66.30;;;;;;5042602;28;46362;-64
2022/06/22 02:26:34;;;;;;;20.33;7.60;;;18.30;66.20;;;;;;5044000;28;46696;-65
2022/06/22 02:29:01;;;;;;;11.50;7.10;;;18.40;67.30;;;;;;5042715;28;47117;-65
2022/06/22 02:31:27;;;;;;;12.27;6.57;;;18.40;66.00;;;;;;5041504;28;46789;-63
2022/06/22 02:33:55;;;;;;;12.50;6.70;;;18.50;66.00;;;;;;5041239;28;46144;-64
2022/06/22 02:36:25;;;;;;;11.63;7.33;;;18.50;66.00;;;;;;5039027;28;46316;-64
2022/06/22 02:38:55;;;;;;;12.23;6.80;;;18.50;66.00;;;;;;5039804;28;47097;-64
2022/06/22 02:44:29;;;;;;;19.43;6.50;;;18.60;65.80;;;;;;5041061;28;46404;-63
2022/06/22 02:46:57;;;;;;;13.40;6.23;;;18.60;65.70;;;;;;5040890;28;46481;-64
2022/06/22 02:49:32;;;;;;;13.90;5.97;;;18.70;66.70;;;;;;5037722;28;47239;-63
2022/06/22 02:52:02;;;;;;;14.93;5.90;;;18.70;65.40;;;;;;5045919;28;46332;-64
2022/06/22 02:54:34;;;;;;;16.77;5.90;;;18.70;65.30;;;;;;5046591;28;46389;-63
2022/06/22 02:57:19;;;;;;;12.60;6.03;;;18.80;65.30;;;;;;5049628;28;46450;-64
2022/06/22 02:59:47;;;;;;;18.10;5.33;;;18.80;65.40;;;;;;5044298;28;46433;-63
2022/06/22 03:02:12;;;;;;;18.40;6.50;;;18.70;65.30;;;;;;5050156;28;46322;-64
2022/06/22 03:04:40;;;;;;;14.77;6.30;;;18.60;65.60;;;;;;5044349;28;46446;-63
2022/06/22 03:07:06;;;;;;;16.77;7.20;;;18.60;65.80;;;;;;5041099;28;46733;-64
2022/06/22 03:09:32;;;;;;;12.37;6.63;;;18.50;65.80;;;;;;5045521;28;46480;-64
2022/06/22 03:11:59;;;;;;;12.33;6.30;;;18.60;65.90;;;;;;5051590;28;46431;-64
2022/06/22 03:14:38;;;;;;;13.23;7.50;;;18.60;65.80;;;;;;5044850;28;46481;-64
2022/06/22 03:17:13;;;;;;;12.93;6.27;;;18.60;65.60;;;;;;5050548;28;46571;-63
2022/06/22 03:20:03;;;;;;;16.07;6.33;;;18.70;65.70;;;;;;5048496;28;47527;-64
2022/06/22 03:22:52;;;;;;;13.50;5.60;;;18.70;65.60;;;;;;5048125;28;46373;-64
2022/06/22 03:25:48;;;;;;;15.70;5.83;;;18.70;65.50;;;;;;5050248;28;46461;-63
2022/06/22 03:28:18;;;;;;;11.43;5.37;;;18.80;65.50;;;;;;5047162;28;46482;-66
2022/06/22 03:30:54;;;;;;;21.23;5.10;;;18.80;65.30;;;;;;5041603;28;46174;-64
2022/06/22 03:33:46;;;;;;;14.60;5.77;;;18.80;65.40;;;;;;5045635;28;46367;-63
2022/06/22 03:36:23;;;;;;;17.07;5.37;;;18.80;65.60;;;;;;5045406;28;46407;-63
2022/06/22 03:38:58;;;;;;;12.70;5.87;;;18.80;65.40;;;;;;5042473;28;46746;-64
2022/06/22 03:41:28;;;;;;;13.03;4.80;;;18.80;65.30;;;;;;5046106;28;46620;-64
2022/06/22 03:44:00;;;;;;;14.13;5.17;;;18.80;65.20;;;;;;5043940;28;46385;-64
2022/06/22 03:46:40;;;;;;;12.90;5.60;;;18.90;65.20;;;;;;5046824;28;46358;-64
2022/06/22 03:49:34;;;;;;;12.37;5.10;;;18.90;65.00;;;;;;5043515;28;47011;-64
2022/06/22 03:52:42;;;;;;;9.30;4.50;;;18.90;65.20;;;;;;5047012;28;46678;-64
2022/06/22 03:55:13;;;;;;;16.13;5.33;;;18.90;65.20;;;;;;5039104;28;46676;-63
2022/06/22 03:57:43;;;;;;;17.10;4.83;;;19.00;64.90;;;;;;5051906;28;46452;-64
2022/06/22 04:00:11;;;;;;;14.93;5.70;;;19.00;64.70;;;;;;5039618;28;46311;-64
2022/06/22 04:02:37;;;;;;;15.00;4.70;;;19.10;64.60;;;;;;5045992;28;46559;-64
2022/06/22 04:05:04;;;;;;;13.27;4.60;;;19.20;64.40;;;;;;5048048;28;46328;-64
2022/06/22 04:07:35;;;;;;;9.90;4.53;;;19.20;64.20;;;;;;5047215;28;46312;-64
2022/06/22 04:10:01;;;;;;;19.50;5.33;;;19.30;64.20;;;;;;5048781;28;46298;-64
2022/06/22 04:12:33;;;;;;;13.83;4.60;;;19.40;64.00;;;;;;5052303;28;46194;-63
2022/06/22 04:15:30;;;;;;;14.20;4.90;;;19.50;63.50;;;;;;5048476;28;46986;-63
2022/06/22 04:18:01;;;;;;;8.50;3.87;;;19.60;63.30;;;;;;5048662;28;46456;-65
2022/06/22 04:20:51;;;;;;;12.10;4.70;;;19.70;62.80;;;;;;5046990;28;45847;-64
2022/06/22 04:23:43;;;;;;;13.60;4.83;;;19.90;62.60;;;;;;5050339;28;47116;-64
2022/06/22 04:26:39;;;;;;;12.03;4.80;;;20.00;62.30;;;;;;5045592;28;46657;-64
2022/06/22 04:29:32;;;;;;;9.67;4.60;;;20.20;62.10;;;;;;5048596;28;46551;-64
2022/06/22 04:32:11;;;;;;;9.40;4.90;;;20.30;61.70;;;;;;5046669;28;46421;-64
2022/06/22 04:35:00;;;;;;;18.60;5.60;;;20.40;61.10;;;;;;5046006;28;46661;-63
2022/06/22 04:37:35;;;;;;;13.37;4.57;;;20.50;61.30;;;;;;5028633;28;45900;-63
2022/06/22 04:40:26;;;;;;;12.70;4.50;;;20.70;61.40;;;;;;5043377;28;46319;-64
2022/06/22 04:42:57;;;;;;;15.63;4.30;;;20.80;61.50;;;;;;5033136;28;46632;-64
2022/06/22 04:45:31;;;;;;;13.43;4.43;;;21.10;62.30;;;;;;5041892;28;47809;-64
2022/06/22 04:48:05;;;;;;;14.03;4.60;;;21.20;60.60;;;;;;5043624;28;46469;-63
2022/06/22 04:50:31;;;;;;;13.53;4.73;;;21.40;60.30;;;;;;5042087;28;46268;-64
2022/06/22 04:52:59;;;;;;;9.63;4.30;;;21.50;59.70;;;;;;5040488;28;46588;-64
2022/06/22 04:55:27;;;;;;;20.13;4.53;;;21.70;59.20;;;;;;5057513;28;48049;-62
2022/06/22 04:58:00;;;;;;;13.17;4.40;;;21.60;59.00;;;;;;5041510;28;46475;-63
2022/06/22 05:00:28;;;;;;;19.17;4.70;;;21.40;59.30;;;;;;5042264;28;46407;-63
2022/06/22 05:03:03;;;;;;;22.60;5.37;;;21.30;59.80;;;;;;5037403;28;45847;-63
2022/06/22 05:05:32;;;;;;;11.77;4.13;;;21.20;60.00;;;;;;5040770;28;47064;-64
2022/06/22 05:08:07;;;;;;;18.10;5.57;;;21.10;59.80;;;;;;5037457;28;46502;-65
2022/06/22 05:10:53;;;;;;;11.90;5.00;;;21.10;59.90;;;;;;5038383;28;46421;-65
2022/06/22 05:13:26;;;;;;;21.87;4.63;;;21.00;59.90;;;;;;5037316;28;46334;-64
2022/06/22 05:15:55;;;;;;;10.80;4.27;;;20.90;60.30;;;;;;5041812;28;47522;-63
2022/06/22 05:18:28;;;;;;;20.17;4.97;;;20.90;60.20;;;;;;5038364;28;46512;-63
2022/06/22 05:21:16;;;;;;;19.30;4.93;;;20.90;60.00;;;;;;5034011;28;46511;-63
2022/06/22 05:23:47;;;;;;;13.20;4.07;;;21.00;60.00;;;;;;5040685;28;46493;-64
2022/06/22 05:26:18;;;;;;;12.67;4.00;;;21.00;60.00;;;;;;5046605;28;46578;-64
2022/06/22 05:28:57;;;;;;;19.93;4.50;;;21.20;59.60;;;;;;5042962;28;46402;-63
2022/06/22 05:31:33;;;;;;;12.70;4.70;;;21.40;59.00;;;;;;5043067;28;46417;-64
2022/06/22 05:34:03;;;;;;;21.13;4.80;;;21.80;57.90;;;;;;5041975;28;46497;-63
2022/06/22 05:36:33;;;;;;;12.80;4.43;;;22.20;56.80;;;;;;5053030;28;47335;-62
2022/06/22 05:39:00;;;;;;;10.53;4.00;;;22.70;55.60;;;;;;5042834;28;45936;-63
2022/06/22 05:41:29;;;;;;;13.47;4.80;;;23.00;54.80;;;;;;5040729;28;46596;-63
2022/06/22 05:43:58;;;;;;;12.97;4.27;;;23.20;53.90;;;;;;5049156;28;46675;-64
2022/06/22 05:46:24;;;;;;;15.90;5.33;;;23.20;54.10;;;;;;5045599;28;47111;-63
2022/06/22 05:48:50;;;;;;;11.70;4.50;;;23.20;54.40;;;;;;5050347;28;46326;-63
2022/06/22 05:51:47;;;;;;;10.73;3.80;;;23.40;54.30;;;;;;5046921;28;45840;-63
2022/06/22 05:54:23;;;;;;;15.17;4.30;;;23.80;53.40;;;;;;5050225;28;46342;-64
2022/06/22 05:56:57;;;;;;;16.50;4.57;;;24.00;52.40;;;;;;5046742;28;46582;-63
2022/06/22 05:59:34;;;;;;;10.90;4.73;;;23.80;53.70;;;;;;5050878;28;46380;-64
2022/06/22 06:02:18;;;;;;;12.37;4.60;;;23.50;53.10;;;;;;5049484;28;46546;-63
2022/06/22 06:05:05;;;;;;;24.20;4.93;;;23.20;53.30;;;;;;5048955;28;46407;-63
2022/06/22 06:07:30;;;;;;;14.20;4.43;;;22.90;53.60;;;;;;5040803;28;46824;-63
2022/06/22 06:09:56;;;;;;;12.20;4.10;;;22.70;54.00;;;;;;5045243;28;46358;-62
2022/06/22 06:12:32;;;;;;;19.53;4.40;;;22.60;54.20;;;;;;5039297;28;46730;-63
2022/06/22 06:15:02;;;;;;;20.93;5.40;;;22.50;54.10;;;;;;5043024;28;46415;-62
2022/06/22 06:17:36;;;;;;;15.07;4.50;;;22.40;54.00;;;;;;5048579;28;46362;-66
2022/06/22 06:20:04;;;;;;;13.60;4.80;;;22.40;53.80;;;;;;5038914;28;46460;-62
2022/06/22 06:22:31;;;;;;;22.00;6.10;;;22.40;53.70;;;;;;5046211;28;46450;-63
2022/06/22 06:27:49;;;;;;;12.30;4.60;;;22.50;53.30;;;;;;5048236;28;46448;-63
2022/06/22 06:30:19;;;;;;;20.50;4.80;;;22.40;53.80;;;;;;5042278;28;46537;-63
2022/06/22 06:33:12;;;;;;;16.07;5.00;;;22.20;54.20;;;;;;5050649;28;46351;-61
2022/06/22 06:35:51;;;;;;;21.50;5.37;;;22.30;54.10;;;;;;5038541;28;46456;-62
2022/06/22 06:38:38;;;;;;;16.13;5.50;;;22.20;54.00;;;;;;5048055;28;46429;-61
2022/06/22 06:41:07;;;;;;;19.23;4.87;;;22.20;54.30;;;;;;5047199;28;46854;-62
2022/06/22 06:43:32;;;;;;;15.10;5.00;;;22.20;54.10;;;;;;5045429;28;46538;-62
2022/06/22 06:46:00;;;;;;;15.73;4.80;;;22.20;54.10;;;;;;5054017;28;46590;-63
2022/06/22 06:48:28;;;;;;;12.40;4.43;;;22.20;54.40;;;;;;5049248;28;46449;-62
2022/06/22 06:51:01;;;;;;;14.97;5.57;;;22.00;54.70;;;;;;5044211;28;46454;-64
2022/06/22 06:53:33;;;;;;;19.57;5.50;;;22.00;55.10;;;;;;5038711;28;46413;-62
2022/06/22 06:56:06;;;;;;;13.30;5.20;;;22.00;55.20;;;;;;5043236;28;46585;-63
2022/06/22 06:58:45;;;;;;;17.73;4.53;;;22.00;55.40;;;;;;5046494;28;47532;-62
2022/06/22 07:01:23;;;;;;;16.47;5.57;;;22.10;55.20;;;;;;5046115;28;46330;-61
2022/06/22 07:03:52;;;;;;;15.40;5.47;;;22.30;54.90;;;;;;5045321;28;46678;-62
2022/06/22 07:06:19;;;;;;;16.80;5.47;;;22.50;54.50;;;;;;5044857;28;46504;-63
2022/06/22 07:08:49;;;;;;;18.07;6.30;;;22.60;54.00;;;;;;5043924;28;47064;-62
2022/06/22 07:11:21;;;;;;;21.27;5.90;;;22.70;53.80;;;;;;5042056;28;45907;-63
2022/06/22 07:13:52;;;;;;;14.67;5.67;;;22.80;53.70;;;;;;5046502;28;46422;-63
2022/06/22 07:16:25;;;;;;;15.10;6.23;;;22.90;53.50;;;;;;5037785;28;46409;-62
2022/06/22 07:19:15;;;;;;;18.33;6.07;;;22.80;53.60;;;;;;5039641;28;46439;-64
2022/06/22 07:21:51;;;;;;;16.83;5.93;;;22.90;53.80;;;;;;5042191;28;46371;-63
2022/06/22 07:24:26;;;;;;;17.73;5.27;;;22.90;53.80;;;;;;5040671;28;46586;-62
2022/06/22 07:27:03;;;;;;;20.63;5.00;;;23.00;53.50;;;;;;5042783;28;46391;-63
2022/06/22 07:29:35;;;;;;;11.80;5.07;;;23.00;53.50;;;;;;5041462;28;46365;-62
2022/06/22 07:32:17;;;;;;;14.97;4.77;;;23.00;53.60;;;;;;5042797;28;46384;-62
2022/06/22 07:34:56;;;;;;;13.53;4.03;;;23.00;53.60;;;;;;5041532;28;46845;-64
2022/06/22 07:37:30;;;;;;;20.60;6.03;;;23.00;53.40;;;;;;5041746;28;46398;-64
2022/06/22 07:40:17;;;;;;;10.80;5.13;;;23.10;53.30;;;;;;5038339;28;47219;-63
2022/06/22 07:42:48;;;;;;;21.17;5.10;;;23.20;52.80;;;;;;5042743;28;46380;-63
2022/06/22 07:45:17;;;;;;;19.37;5.57;;;23.30;52.60;;;;;;5035687;28;46404;-64
2022/06/22 07:48:05;;;;;;;22.53;5.13;;;23.40;52.60;;;;;;5035714;28;46394;-62
2022/06/22 07:50:35;;;;;;;13.63;4.57;;;23.20;52.70;;;;;;5036669;28;46470;-63
2022/06/22 07:53:22;;;;;;;18.30;5.00;;;23.20;52.70;;;;;;5043406;28;46429;-63
2022/06/22 07:56:00;;;;;;;13.00;4.90;;;23.30;52.60;;;;;;5045863;28;46638;-64
2022/06/22 07:58:34;;;;;;;13.40;4.83;;;23.40;52.50;;;;;;5041828;28;46977;-63
2022/06/22 08:01:05;;;;;;;19.83;4.50;;;23.50;52.30;;;;;;5045025;28;46727;-64
2022/06/22 08:03:42;;;;;;;17.43;5.67;;;23.40;52.60;;;;;;5039529;28;46375;-63
2022/06/22 08:06:15;;;;;;;16.93;5.10;;;23.40;52.70;;;;;;5042851;28;46531;-64
2022/06/22 08:08:46;;;;;;;24.87;5.10;;;23.40;52.70;;;;;;5042434;28;46574;-64
2022/06/22 08:11:21;;;;;;;17.07;5.10;;;23.40;52.60;;;;;;5036449;28;46793;-64
2022/06/22 08:14:04;;;;;;;16.37;5.53;;;23.50;52.40;;;;;;5039443;28;46504;-64
2022/06/22 08:16:40;;;;;;;24.13;5.27;;;23.40;52.60;;;;;;5031360;28;46671;-64
2022/06/22 08:19:06;;;;;;;20.33;5.63;;;23.40;52.70;;;;;;5043540;28;46390;-63
2022/06/22 08:21:38;;;;;;;12.20;4.80;;;23.40;52.80;;;;;;5046912;28;48371;-64
2022/06/22 08:24:06;;;;;;;16.47;5.73;;;23.40;52.90;;;;;;5045107;28;46432;-64
2022/06/22 08:26:32;;;;;;;22.70;5.00;;;23.20;53.10;;;;;;5047075;28;46397;-64
2022/06/22 08:29:00;;;;;;;20.30;6.57;;;23.10;53.30;;;;;;5049645;28;46748;-64
2022/06/22 08:31:31;;;;;;;11.67;4.90;;;23.20;53.20;;;;;;5041186;28;47178;-65
2022/06/22 08:33:59;;;;;;;18.83;6.53;;;23.20;53.30;;;;;;5043486;28;46653;-63
2022/06/22 08:36:40;;;;;;;15.50;5.00;;;23.20;53.40;;;;;;5042957;28;46499;-64
2022/06/22 08:39:21;;;;;;;16.53;5.53;;;23.20;53.60;;;;;;5041237;28;46511;-64
2022/06/22 08:42:02;;;;;;;15.70;5.83;;;23.10;53.50;;;;;;5042259;28;46621;-64
2022/06/22 08:44:36;;;;;;;20.13;5.97;;;23.00;53.60;;;;;;5039807;28;46724;-64
2022/06/22 08:47:26;;;;;;;14.50;5.10;;;23.00;53.70;;;;;;5036791;28;46303;-64
2022/06/22 08:50:27;;;;;;;16.63;5.70;;;23.00;53.60;;;;;;5034708;28;46780;-63
2022/06/22 08:53:37;;;;;;;16.23;6.23;;;23.00;53.60;;;;;;5044439;28;47217;-63
2022/06/22 08:56:41;;;;;;;13.97;5.47;;;23.10;53.60;;;;;;5033420;28;46882;-63
2022/06/22 08:59:29;;;;;;;15.17;5.73;;;23.20;53.40;;;;;;5041557;28;46419;-63
2022/06/22 09:02:22;;;;;;;20.40;6.23;;;23.30;53.30;;;;;;5042024;28;46528;-65
2022/06/22 09:05:07;;;;;;;10.80;5.13;;;23.30;53.10;;;;;;5037157;28;47113;-63
2022/06/22 09:07:56;;;;;;;18.20;6.13;;;23.30;53.10;;;;;;5041893;28;46482;-63
2022/06/22 09:10:29;;;;;;;17.10;5.97;;;23.30;53.30;;;;;;5047087;28;46508;-62
2022/06/22 09:13:37;;;;;;;22.33;5.67;;;23.20;53.50;;;;;;5043261;28;47224;-64
2022/06/22 09:16:36;;;;;;;12.60;5.50;;;23.10;53.80;;;;;;5044986;28;46728;-65
2022/06/22 09:19:31;;;;;;;21.00;5.93;;;23.10;54.00;;;;;;5040670;28;46772;-63
2022/06/22 09:22:23;;;;;;;19.90;6.83;;;23.00;54.20;;;;;;5040562;28;46909;-64
2022/06/22 09:25:13;;;;;;;14.63;5.70;;;23.00;54.20;;;;;;5045011;28;46889;-63
2022/06/22 09:27:42;;;;;;;24.17;6.43;;;23.00;54.20;;;;;;5043905;28;47930;-63
2022/06/22 09:30:29;;;;;;;30.13;6.47;;;22.90;54.30;;;;;;5046131;28;46468;-63
2022/06/22 09:33:22;;;;;;;23.20;6.90;;;22.90;54.40;;;;;;5044967;28;46313;-63
2022/06/22 09:36:02;;;;;;;25.73;6.53;;;23.00;54.40;;;;;;5044985;28;46908;-63
2022/06/22 09:38:36;;;;;;;14.13;5.73;;;23.10;54.30;;;;;;5046285;28;46649;-63
2022/06/22 09:41:20;;;;;;;15.73;6.20;;;23.20;53.80;;;;;;5047808;28;46448;-62
2022/06/22 09:44:04;;;;;;;18.43;6.30;;;23.20;53.90;;;;;;5042979;28;46348;-64
2022/06/22 09:46:36;;;;;;;14.03;6.63;;;23.30;53.80;;;;;;5050583;28;46521;-63
2022/06/22 09:49:16;;;;;;;14.43;6.30;;;23.40;53.50;;;;;;5042285;28;46665;-62
2022/06/22 09:52:00;;;;;;;24.20;6.60;;;23.60;53.30;;;;;;5045667;28;46405;-62
2022/06/22 09:57:42;;;;;;;13.50;6.10;;;23.80;52.80;;;;;;5037817;28;46439;-63
2022/06/22 10:00:14;;;;;;;24.23;6.73;;;23.80;52.70;;;;;;5018549;28;48097;-65
2022/06/22 10:03:04;;;;;;;12.40;5.40;;;24.00;52.20;;;;;;5041016;28;46537;-62
2022/06/22 10:05:55;;;;;;;20.37;5.70;;;24.00;52.10;;;;;;5035557;28;46542;-63
2022/06/22 10:08:33;;;;;;;20.30;5.70;;;24.00;51.30;;;;;;5042715;28;46437;-64
2022/06/22 10:11:31;;;;;;;16.00;5.73;;;24.10;51.40;;;;;;5042636;28;47147;-63
2022/06/22 10:14:18;;;;;;;13.80;5.70;;;23.90;51.30;;;;;;5020255;28;46549;-65
2022/06/22 10:17:16;;;;;;;20.77;6.40;;;23.90;51.50;;;;;;5036291;28;46023;-63
2022/06/22 10:19:54;;;;;;;17.93;6.43;;;24.00;51.40;;;;;;5038913;28;46246;-63
2022/06/22 10:22:51;;;;;;;26.40;6.50;;;24.10;51.40;;;;;;5041995;28;47492;-63
2022/06/22 10:25:53;;;;;;;19.57;6.40;;;24.20;51.60;;;;;;5037882;28;46775;-63
2022/06/22 10:28:52;;;;;;;19.50;5.77;;;24.00;51.40;;;;;;5048596;28;46318;-63
2022/06/22 10:31:32;;;;;;;21.03;6.40;;;23.90;51.20;;;;;;5046574;28;46606;-63
2022/06/22 10:34:25;;;;;;;18.17;6.10;;;23.80;51.10;;;;;;5044769;28;47175;-61
2022/06/22 10:36:59;;;;;;;12.90;5.10;;;23.70;51.70;;;;;;5045173;28;46344;-64
2022/06/22 10:39:31;;;;;;;21.43;6.53;;;23.70;52.00;;;;;;5047532;28;46873;-63
2022/06/22 10:45:48;;;;;;;18.90;5.67;;;23.50;52.30;;;;;;5043987;28;46708;-62
2022/06/22 10:48:43;;;;;;;26.10;6.43;;;23.50;52.30;;;;;;5044906;28;46743;-63
2022/06/22 10:51:08;;;;;;;20.87;6.40;;;23.50;52.30;;;;;;5043550;28;45878;-62
2022/06/22 10:54:35;;;;;;;16.67;6.30;;;23.40;52.90;;;;;;5044146;28;46520;-63
2022/06/22 10:57:10;;;;;;;21.87;7.33;;;23.30;53.40;;;;;;5015559;28;46450;-63
2022/06/22 11:00:20;;;;;;;19.77;8.00;;;23.20;53.40;;;;;;5041175;28;46468;-63
2022/06/22 11:02:51;;;;;;;25.07;7.50;;;23.20;53.70;;;;;;5032979;28;46666;-64
2022/06/22 11:05:36;;;;;;;17.03;7.37;;;23.20;53.70;;;;;;5043657;28;46442;-65
2022/06/22 11:08:34;;;;;;;16.23;7.03;;;23.20;53.70;;;;;;5043093;28;46352;-63
2022/06/22 11:11:19;;;;;;;15.80;8.00;;;23.10;54.40;;;;;;5042792;28;46377;-62
2022/06/22 11:14:15;;;;;;;21.73;8.50;;;22.90;55.40;;;;;;5037199;28;46728;-62
2022/06/22 11:16:55;;;;;;;23.03;8.47;;;22.70;56.20;;;;;;5039249;28;46221;-63
2022/06/22 11:19:53;;;;;;;27.83;8.50;;;22.60;56.30;;;;;;5040218;28;46678;-63
2022/06/22 11:22:32;;;;;;;16.90;7.37;;;22.30;57.60;;;;;;5043924;28;46509;-63
2022/06/22 11:25:07;;;;;;;18.03;7.97;;;22.10;58.10;;;;;;5037189;28;46820;-62
2022/06/22 11:30:48;;;;;;;20.83;8.77;;;22.10;57.80;;;;;;5039934;28;46483;-62
2022/06/22 11:33:35;;;;;;;16.17;7.40;;;22.10;57.80;;;;;;5043890;28;47044;-63
2022/06/22 11:36:22;;;;;;;16.80;7.33;;;22.00;58.10;;;;;;5044658;28;46878;-63
2022/06/22 11:39:15;;;;;;;17.90;7.40;;;21.90;57.80;;;;;;5047732;28;46363;-63
2022/06/22 11:42:00;;;;;;;20.33;6.97;;;21.80;58.20;;;;;;5043786;28;46687;-62
2022/06/22 11:48:13;;;;;;;18.10;5.90;;;21.80;58.20;;;;;;5040781;28;46435;-62
2022/06/22 11:51:14;;;;;;;18.80;5.80;;;21.80;58.10;;;;;;5037002;28;46542;-65
2022/06/22 11:54:16;;;;;;;18.27;5.70;;;21.70;58.30;;;;;;5038780;28;46724;-64
2022/06/22 11:57:01;;;;;;;18.73;5.20;;;21.60;58.40;;;;;;5042014;28;46412;-62
2022/06/22 12:00:01;;;;;;;14.13;5.33;;;21.50;59.70;;;;;;5042580;28;46362;-61
2022/06/22 12:02:45;;;;;;;16.33;5.47;;;21.50;58.50;;;;;;5041927;28;46540;-64
2022/06/22 12:05:54;;;;;;;21.00;6.20;;;21.60;58.40;;;;;;5041203;28;47194;-64
2022/06/22 12:08:56;;;;;;;23.67;6.60;;;21.70;58.30;;;;;;5041428;28;46613;-62
2022/06/22 12:11:46;;;;;;;16.70;6.00;;;21.80;58.40;;;;;;5039430;28;46518;-62
2022/06/22 12:17:28;;;;;;;14.90;5.63;;;21.90;58.10;;;;;;5043532;28;46421;-62
2022/06/22 12:20:18;;;;;;;16.40;5.33;;;21.80;58.80;;;;;;5034556;28;46391;-63
2022/06/22 12:22:46;;;;;;;15.70;5.00;;;21.70;59.40;;;;;;5040929;28;46087;-64
2022/06/22 12:25:42;;;;;;;16.37;4.53;;;21.50;60.00;;;;;;5038196;28;46403;-63
2022/06/22 12:28:27;;;;;;;14.70;4.83;;;21.40;60.60;;;;;;5043702;28;47286;-64
2022/06/22 12:31:20;;;;;;;19.30;4.87;;;21.50;60.80;;;;;;5038504;28;46408;-65
2022/06/22 12:34:00;;;;;;;19.30;4.53;;;21.40;60.60;;;;;;5039739;28;46393;-64
2022/06/22 12:36:37;;;;;;;18.00;4.00;;;21.60;60.20;;;;;;5032814;28;46697;-63
2022/06/22 12:39:10;;;;;;;13.03;4.87;;;21.90;59.40;;;;;;5044644;28;47067;-63
2022/06/22 12:41:41;;;;;;;19.20;5.10;;;22.10;58.80;;;;;;5038872;28;45885;-64
2022/06/22 12:44:46;;;;;;;21.47;6.50;;;22.40;58.00;;;;;;5036310;28;46519;-65
2022/06/22 12:47:27;;;;;;;19.63;5.13;;;22.70;57.40;;;;;;5031371;28;46452;-65
2022/06/22 12:50:20;;;;;;;23.37;5.60;;;22.80;56.80;;;;;;5034104;28;46552;-63
2022/06/22 12:52:56;;;;;;;17.33;5.33;;;23.00;56.60;;;;;;5046127;28;46478;-64
2022/06/22 12:55:30;;;;;;;17.87;5.80;;;23.10;56.50;;;;;;5040466;28;46633;-63
2022/06/22 12:58:05;;;;;;;18.10;7.27;;;23.20;56.50;;;;;;5042541;28;46429;-63
2022/06/22 13:00:31;;;;;;;19.90;6.30;;;23.20;56.40;;;;;;5038581;28;46468;-64
2022/06/22 13:02:58;;;;;;;16.00;6.30;;;23.20;56.40;;;;;;5042429;28;46369;-63
2022/06/22 13:05:30;;;;;;;17.63;6.93;;;23.20;56.80;;;;;;5037135;28;47070;-62
2022/06/22 13:08:03;;;;;;;12.00;7.20;;;23.10;56.90;;;;;;5050774;28;46462;-63
2022/06/22 13:10:40;;;;;;;22.10;7.30;;;23.10;57.10;;;;;;5039951;28;46425;-63
2022/06/22 13:13:08;;;;;;;22.00;7.50;;;23.10;57.50;;;;;;5042859;28;46521;-63
2022/06/22 13:15:39;;;;;;;24.37;7.27;;;23.10;57.70;;;;;;5040338;28;46841;-63
2022/06/22 13:18:34;;;;;;;21.33;7.87;;;23.10;58.30;;;;;;5041000;28;46452;-64
2022/06/22 13:21:12;;;;;;;17.10;7.70;;;23.10;58.30;;;;;;5043051;28;47286;-63
2022/06/22 13:24:02;;;;;;;14.83;7.00;;;23.10;58.30;;;;;;5039218;28;46501;-63
2022/06/22 13:26:55;;;;;;;19.37;8.23;;;23.00;58.30;;;;;;5040442;28;47206;-62
2022/06/22 13:29:42;;;;;;;22.40;7.70;;;23.10;58.30;;;;;;5042574;28;46327;-63
2022/06/22 13:32:10;;;;;;;18.80;8.20;;;23.20;57.90;;;;;;5038873;28;46383;-66
2022/06/22 13:34:45;;;;;;;27.50;8.57;;;23.30;57.70;;;;;;5041714;28;46439;-65
2022/06/22 13:37:42;;;;;;;19.97;7.20;;;23.30;57.70;;;;;;5042873;28;46554;-62
2022/06/22 13:40:26;;;;;;;18.30;7.37;;;23.10;58.10;;;;;;5044712;28;46422;-63
2022/06/22 13:43:03;;;;;;;27.43;9.10;;;23.10;58.40;;;;;;5041979;28;47254;-63
2022/06/22 13:45:41;;;;;;;14.90;7.53;;;22.90;58.50;;;;;;5036478;28;46524;-63
2022/06/22 13:48:36;;;;;;;17.33;7.33;;;22.90;59.30;;;;;;5043288;28;45816;-62
2022/06/22 13:51:29;;;;;;;19.47;8.00;;;22.80;59.40;;;;;;5044410;28;46587;-64
2022/06/22 13:54:15;;;;;;;17.80;7.40;;;22.80;59.40;;;;;;5040766;28;46482;-63
2022/06/22 13:56:54;;;;;;;17.27;9.13;;;22.80;59.40;;;;;;5045610;28;45812;-63
2022/06/22 13:59:37;;;;;;;29.17;7.30;;;22.80;59.30;;;;;;5040365;28;45892;-61
2022/06/22 14:02:32;;;;;;;21.70;7.57;;;22.90;58.80;;;;;;5045560;28;45784;-62
2022/06/22 14:05:05;;;;;;;19.40;8.33;;;23.00;58.80;;;;;;5036906;28;46457;-63